ELY5120 EPKK-LLBG
Flight info
| Callsign | ELY5120 |
|---|---|
| Flight time | N/A |
| Altitude | 35000 |
| Route | BABKO M866 NIDOK DCT PARAK DCT RAXAD DCT MAKED UL617 TSL UN130 MES UL609 ALKIS L609 ZUKKO |
| Aircraft | B738/M-SDE2E3FGHIJ1LORVWXY/LB1 |
Departure
| Time | 2026-05-01 08:00 |
|---|---|
| Airport | Kraków John Paul II International Airport (EPKK) |
Arrival
| Time | N/A |
|---|---|
| Airport | Ben Gurion International Airport (LLBG) |
| Time | Latitude | Longitude | Altitude | Speed | Heading |
|---|---|---|---|---|---|
| 2026-05-01 07:33 | 50.07301 | 19.80010 | 789 ft | 0 kts | 167° |
| 2026-05-01 07:52 | 50.07310 | 19.80007 | 790 ft | 4 kts | 167° |
| 2026-05-01 07:52 | 50.07337 | 19.79998 | 790 ft | 4 kts | 168° |
| 2026-05-01 07:53 | 50.07388 | 19.79979 | 790 ft | 4 kts | 164° |
| 2026-05-01 07:53 | 50.07407 | 19.79971 | 790 ft | 1 kts | 163° |
| 2026-05-01 07:53 | 50.07410 | 19.79969 | 790 ft | 1 kts | 163° |
| 2026-05-01 07:55 | 50.07407 | 19.79972 | 790 ft | 3 kts | 152° |
| 2026-05-01 07:55 | 50.07425 | 19.80199 | 790 ft | 19 kts | 78° |
| 2026-05-01 07:56 | 50.07631 | 19.80411 | 790 ft | 13 kts | 345° |
| 2026-05-01 07:56 | 50.07797 | 19.80351 | 790 ft | 12 kts | 348° |
| 2026-05-01 07:57 | 50.07839 | 19.80337 | 790 ft | 1 kts | 348° |
| 2026-05-01 07:57 | 50.07843 | 19.80336 | 790 ft | 0 kts | 348° |
| 2026-05-01 07:58 | 50.07846 | 19.80335 | 790 ft | 2 kts | 347° |
| 2026-05-01 07:58 | 50.07939 | 19.80304 | 789 ft | 12 kts | 347° |
| 2026-05-01 07:59 | 50.08013 | 19.80199 | 789 ft | 0 kts | 256° |
| 2026-05-01 07:59 | 50.07962 | 19.79843 | 789 ft | 71 kts | 258° |
| 2026-05-01 08:00 | 50.07059 | 19.73519 | 2745 ft | 171 kts | 261° |
| 2026-05-01 08:01 | 50.06317 | 19.68473 | 4333 ft | 195 kts | 253° |
| 2026-05-01 08:01 | 50.05570 | 19.66632 | 4782 ft | 213 kts | 223° |
| 2026-05-01 08:01 | 50.04237 | 19.65449 | 5101 ft | 230 kts | 204° |
| 2026-05-01 08:02 | 50.00826 | 19.65307 | 5620 ft | 273 kts | 167° |
| 2026-05-01 08:02 | 49.98936 | 19.65966 | 6198 ft | 284 kts | 165° |
| 2026-05-01 08:03 | 49.95012 | 19.67386 | 7578 ft | 294 kts | 165° |
| 2026-05-01 08:03 | 49.93006 | 19.68078 | 8311 ft | 297 kts | 165° |
| 2026-05-01 08:03 | 49.88900 | 19.69402 | 9743 ft | 307 kts | 172° |
| 2026-05-01 08:04 | 49.84739 | 19.67333 | 10761 ft | 335 kts | 208° |
| 2026-05-01 08:04 | 49.80425 | 19.63534 | 11210 ft | 373 kts | 209° |
| 2026-05-01 08:05 | 49.75840 | 19.59501 | 12407 ft | 383 kts | 209° |
| 2026-05-01 08:05 | 49.73532 | 19.57498 | 13053 ft | 387 kts | 209° |
| 2026-05-01 08:05 | 49.71175 | 19.55456 | 13747 ft | 390 kts | 209° |
| 2026-05-01 08:06 | 49.66380 | 19.51340 | 14934 ft | 398 kts | 209° |
| 2026-05-01 08:06 | 49.61493 | 19.47154 | 16079 ft | 406 kts | 208° |
| 2026-05-01 08:07 | 49.56527 | 19.42794 | 17174 ft | 414 kts | 210° |
| 2026-05-01 08:07 | 49.51506 | 19.38305 | 18279 ft | 422 kts | 209° |
| 2026-05-01 08:08 | 49.48954 | 19.36028 | 18777 ft | 426 kts | 209° |
| 2026-05-01 08:08 | 49.43781 | 19.31433 | 19682 ft | 434 kts | 209° |
| 2026-05-01 08:09 | 49.38507 | 19.26770 | 20583 ft | 441 kts | 208° |
| 2026-05-01 08:09 | 49.35834 | 19.24412 | 21030 ft | 445 kts | 208° |
| 2026-05-01 08:09 | 49.33143 | 19.22042 | 21468 ft | 449 kts | 208° |
| 2026-05-01 08:10 | 49.27674 | 19.17234 | 22310 ft | 456 kts | 208° |
| 2026-05-01 08:10 | 49.22125 | 19.12374 | 23173 ft | 463 kts | 208° |
| 2026-05-01 08:11 | 49.16496 | 19.07440 | 23981 ft | 470 kts | 208° |
| 2026-05-01 08:11 | 49.10787 | 19.02457 | 24673 ft | 475 kts | 208° |
| 2026-05-01 08:12 | 49.05019 | 18.97440 | 25393 ft | 479 kts | 207° |
| 2026-05-01 08:12 | 49.02114 | 18.94917 | 25739 ft | 482 kts | 207° |
| 2026-05-01 08:12 | 48.96264 | 18.89844 | 26378 ft | 487 kts | 207° |
| 2026-05-01 08:13 | 48.93310 | 18.87289 | 26694 ft | 489 kts | 207° |
| 2026-05-01 08:13 | 48.90281 | 18.84915 | 26968 ft | 489 kts | 197° |
| 2026-05-01 08:13 | 48.83698 | 18.83903 | 27567 ft | 471 kts | 163° |
| 2026-05-01 08:14 | 48.80572 | 18.85160 | 27838 ft | 462 kts | 153° |
| 2026-05-01 08:14 | 48.77524 | 18.86733 | 28132 ft | 464 kts | 153° |
| 2026-05-01 08:14 | 48.74456 | 18.88328 | 28401 ft | 467 kts | 153° |
| 2026-05-01 08:14 | 48.71370 | 18.89917 | 28688 ft | 470 kts | 153° |
| 2026-05-01 08:15 | 48.68267 | 18.91491 | 28991 ft | 472 kts | 154° |
| 2026-05-01 08:15 | 48.62004 | 18.94606 | 29557 ft | 476 kts | 154° |
| 2026-05-01 08:15 | 48.58850 | 18.96155 | 29863 ft | 477 kts | 154° |
| 2026-05-01 08:16 | 48.55687 | 18.97703 | 30168 ft | 479 kts | 154° |
| 2026-05-01 08:16 | 48.52558 | 18.99232 | 30429 ft | 480 kts | 154° |